sensor_id;sensor_type;location;lat;lon;timestamp;P1;durP1;ratioP1;P2;durP2;ratioP2
20734;SDS011;10528;52.124;5.196;2023-10-13T00:00:34;11.00;;;7.93;;
20734;SDS011;10528;52.124;5.196;2023-10-13T00:03:07;18.00;;;10.40;;
20734;SDS011;10528;52.124;5.196;2023-10-13T00:05:45;11.65;;;9.02;;
20734;SDS011;10528;52.124;5.196;2023-10-13T00:08:12;15.18;;;8.98;;
20734;SDS011;10528;52.124;5.196;2023-10-13T00:10:40;19.33;;;9.68;;
20734;SDS011;10528;52.124;5.196;2023-10-13T00:13:08;13.57;;;9.95;;
20734;SDS011;10528;52.124;5.196;2023-10-13T00:15:41;13.15;;;10.43;;
20734;SDS011;10528;52.124;5.196;2023-10-13T00:18:30;15.88;;;10.30;;
20734;SDS011;10528;52.124;5.196;2023-10-13T00:21:01;14.23;;;9.60;;
20734;SDS011;10528;52.124;5.196;2023-10-13T00:23:43;12.50;;;8.20;;
20734;SDS011;10528;52.124;5.196;2023-10-13T00:26:26;13.80;;;9.77;;
20734;SDS011;10528;52.124;5.196;2023-10-13T00:29:00;12.77;;;9.68;;
20734;SDS011;10528;52.124;5.196;2023-10-13T00:31:45;15.15;;;8.85;;
20734;SDS011;10528;52.124;5.196;2023-10-13T00:34:15;13.05;;;9.32;;
20734;SDS011;10528;52.124;5.196;2023-10-13T00:36:54;12.10;;;9.25;;
20734;SDS011;10528;52.124;5.196;2023-10-13T00:39:40;14.95;;;9.05;;
20734;SDS011;10528;52.124;5.196;2023-10-13T00:42:11;13.75;;;9.30;;
20734;SDS011;10528;52.124;5.196;2023-10-13T00:44:52;17.00;;;10.07;;
20734;SDS011;10528;52.124;5.196;2023-10-13T00:47:20;14.38;;;10.00;;
20734;SDS011;10528;52.124;5.196;2023-10-13T00:50:06;16.73;;;10.68;;
20734;SDS011;10528;52.124;5.196;2023-10-13T00:52:38;13.40;;;9.95;;
20734;SDS011;10528;52.124;5.196;2023-10-13T00:55:09;14.82;;;10.98;;
20734;SDS011;10528;52.124;5.196;2023-10-13T00:57:38;15.75;;;10.95;;
20734;SDS011;10528;52.124;5.196;2023-10-13T01:00:07;17.73;;;10.95;;
20734;SDS011;10528;52.124;5.196;2023-10-13T01:02:52;13.57;;;10.40;;
20734;SDS011;10528;52.124;5.196;2023-10-13T01:05:23;12.48;;;10.45;;
20734;SDS011;10528;52.124;5.196;2023-10-13T01:07:52;15.63;;;9.50;;
20734;SDS011;10528;52.124;5.196;2023-10-13T01:10:21;13.60;;;10.18;;
20734;SDS011;10528;52.124;5.196;2023-10-13T01:12:54;15.23;;;11.18;;
20734;SDS011;10528;52.124;5.196;2023-10-13T01:15:21;15.23;;;10.80;;
20734;SDS011;10528;52.124;5.196;2023-10-13T01:17:48;14.90;;;10.57;;
20734;SDS011;10528;52.124;5.196;2023-10-13T01:20:15;13.85;;;10.07;;
20734;SDS011;10528;52.124;5.196;2023-10-13T01:22:51;14.07;;;10.32;;
20734;SDS011;10528;52.124;5.196;2023-10-13T01:25:24;14.23;;;10.93;;
20734;SDS011;10528;52.124;5.196;2023-10-13T01:27:55;12.15;;;9.38;;
20734;SDS011;10528;52.124;5.196;2023-10-13T01:30:23;13.75;;;9.65;;
20734;SDS011;10528;52.124;5.196;2023-10-13T01:32:51;13.38;;;9.68;;
20734;SDS011;10528;52.124;5.196;2023-10-13T01:35:20;13.60;;;9.73;;
20734;SDS011;10528;52.124;5.196;2023-10-13T01:38:02;11.43;;;9.15;;
20734;SDS011;10528;52.124;5.196;2023-10-13T01:40:29;15.13;;;10.25;;
20734;SDS011;10528;52.124;5.196;2023-10-13T01:43:00;12.48;;;9.90;;
20734;SDS011;10528;52.124;5.196;2023-10-13T01:45:27;14.00;;;9.98;;
20734;SDS011;10528;52.124;5.196;2023-10-13T01:47:58;13.70;;;9.30;;
20734;SDS011;10528;52.124;5.196;2023-10-13T01:50:25;13.65;;;9.85;;
20734;SDS011;10528;52.124;5.196;2023-10-13T01:52:55;14.25;;;9.77;;
20734;SDS011;10528;52.124;5.196;2023-10-13T01:55:52;12.05;;;8.98;;
20734;SDS011;10528;52.124;5.196;2023-10-13T01:58:23;13.02;;;9.35;;
20734;SDS011;10528;52.124;5.196;2023-10-13T02:00:52;12.40;;;9.20;;
20734;SDS011;10528;52.124;5.196;2023-10-13T02:03:19;12.90;;;8.23;;
20734;SDS011;10528;52.124;5.196;2023-10-13T02:05:48;12.02;;;8.32;;
20734;SDS011;10528;52.124;5.196;2023-10-13T02:08:16;11.27;;;8.35;;
20734;SDS011;10528;52.124;5.196;2023-10-13T02:10:49;13.15;;;8.20;;
20734;SDS011;10528;52.124;5.196;2023-10-13T02:13:24;15.57;;;8.05;;
20734;SDS011;10528;52.124;5.196;2023-10-13T02:15:56;14.90;;;8.73;;
20734;SDS011;10528;52.124;5.196;2023-10-13T02:18:26;11.40;;;7.90;;
20734;SDS011;10528;52.124;5.196;2023-10-13T02:20:53;13.63;;;8.05;;
20734;SDS011;10528;52.124;5.196;2023-10-13T02:23:22;9.85;;;7.78;;
20734;SDS011;10528;52.124;5.196;2023-10-13T02:25:51;12.88;;;7.50;;
20734;SDS011;10528;52.124;5.196;2023-10-13T02:28:27;10.70;;;7.45;;
20734;SDS011;10528;52.124;5.196;2023-10-13T02:30:57;10.93;;;7.93;;
20734;SDS011;10528;52.124;5.196;2023-10-13T02:33:31;11.18;;;7.18;;
20734;SDS011;10528;52.124;5.196;2023-10-13T02:36:07;11.90;;;7.63;;
20734;SDS011;10528;52.124;5.196;2023-10-13T02:38:34;10.18;;;7.13;;
20734;SDS011;10528;52.124;5.196;2023-10-13T02:41:17;11.65;;;7.57;;
20734;SDS011;10528;52.124;5.196;2023-10-13T02:43:53;12.73;;;8.10;;
20734;SDS011;10528;52.124;5.196;2023-10-13T02:46:22;13.57;;;8.52;;
20734;SDS011;10528;52.124;5.196;2023-10-13T02:48:50;10.73;;;7.80;;
20734;SDS011;10528;52.124;5.196;2023-10-13T02:51:20;10.80;;;7.45;;
20734;SDS011;10528;52.124;5.196;2023-10-13T02:53:51;11.90;;;7.60;;
20734;SDS011;10528;52.124;5.196;2023-10-13T02:56:19;12.55;;;7.93;;
20734;SDS011;10528;52.124;5.196;2023-10-13T02:58:52;11.88;;;7.82;;
20734;SDS011;10528;52.124;5.196;2023-10-13T03:01:20;12.38;;;7.35;;
20734;SDS011;10528;52.124;5.196;2023-10-13T03:03:51;15.10;;;8.07;;
20734;SDS011;10528;52.124;5.196;2023-10-13T03:06:22;13.70;;;7.70;;
20734;SDS011;10528;52.124;5.196;2023-10-13T03:08:51;14.07;;;8.30;;
20734;SDS011;10528;52.124;5.196;2023-10-13T03:11:19;13.63;;;8.57;;
20734;SDS011;10528;52.124;5.196;2023-10-13T03:13:48;10.98;;;7.53;;
20734;SDS011;10528;52.124;5.196;2023-10-13T03:16:18;14.10;;;7.70;;
20734;SDS011;10528;52.124;5.196;2023-10-13T03:18:48;15.75;;;8.07;;
20734;SDS011;10528;52.124;5.196;2023-10-13T03:21:22;12.43;;;7.93;;
20734;SDS011;10528;52.124;5.196;2023-10-13T03:23:57;13.80;;;8.43;;
20734;SDS011;10528;52.124;5.196;2023-10-13T03:26:33;10.18;;;7.47;;
20734;SDS011;10528;52.124;5.196;2023-10-13T03:29:03;11.63;;;7.43;;
20734;SDS011;10528;52.124;5.196;2023-10-13T03:31:34;13.48;;;8.05;;
20734;SDS011;10528;52.124;5.196;2023-10-13T03:34:04;10.15;;;7.35;;
20734;SDS011;10528;52.124;5.196;2023-10-13T03:36:36;11.75;;;7.50;;
20734;SDS011;10528;52.124;5.196;2023-10-13T03:39:23;10.10;;;7.53;;
20734;SDS011;10528;52.124;5.196;2023-10-13T03:41:57;9.27;;;7.43;;
20734;SDS011;10528;52.124;5.196;2023-10-13T03:44:25;15.43;;;9.15;;
20734;SDS011;10528;52.124;5.196;2023-10-13T03:46:57;11.35;;;7.63;;
20734;SDS011;10528;52.124;5.196;2023-10-13T03:49:35;10.93;;;7.47;;
20734;SDS011;10528;52.124;5.196;2023-10-13T03:52:04;9.95;;;7.30;;
20734;SDS011;10528;52.124;5.196;2023-10-13T03:54:32;10.65;;;7.28;;
20734;SDS011;10528;52.124;5.196;2023-10-13T03:57:01;11.77;;;7.40;;
20734;SDS011;10528;52.124;5.196;2023-10-13T03:59:37;11.10;;;6.63;;
20734;SDS011;10528;52.124;5.196;2023-10-13T04:02:05;12.60;;;7.43;;
20734;SDS011;10528;52.124;5.196;2023-10-13T04:04:44;12.00;;;6.50;;
20734;SDS011;10528;52.124;5.196;2023-10-13T04:07:13;10.68;;;6.40;;
20734;SDS011;10528;52.124;5.196;2023-10-13T04:10:00;9.25;;;5.60;;
20734;SDS011;10528;52.124;5.196;2023-10-13T04:13:05;10.02;;;6.20;;
20734;SDS011;10528;52.124;5.196;2023-10-13T04:15:51;8.95;;;6.15;;
20734;SDS011;10528;52.124;5.196;2023-10-13T04:18:36;8.63;;;6.47;;
20734;SDS011;10528;52.124;5.196;2023-10-13T04:21:26;8.50;;;6.78;;
20734;SDS011;10528;52.124;5.196;2023-10-13T04:24:09;10.43;;;6.43;;
20734;SDS011;10528;52.124;5.196;2023-10-13T04:26:58;10.02;;;6.57;;
20734;SDS011;10528;52.124;5.196;2023-10-13T04:29:44;9.20;;;6.70;;
20734;SDS011;10528;52.124;5.196;2023-10-13T04:32:14;10.77;;;6.82;;
20734;SDS011;10528;52.124;5.196;2023-10-13T04:34:58;13.02;;;6.75;;
20734;SDS011;10528;52.124;5.196;2023-10-13T04:37:47;8.75;;;6.10;;
20734;SDS011;10528;52.124;5.196;2023-10-13T04:40:19;8.60;;;6.38;;
20734;SDS011;10528;52.124;5.196;2023-10-13T04:42:51;7.90;;;6.28;;
20734;SDS011;10528;52.124;5.196;2023-10-13T04:45:30;10.50;;;6.47;;
20734;SDS011;10528;52.124;5.196;2023-10-13T04:47:58;8.27;;;5.88;;
20734;SDS011;10528;52.124;5.196;2023-10-13T04:50:46;5.90;;;5.30;;
20734;SDS011;10528;52.124;5.196;2023-10-13T04:53:38;6.97;;;5.43;;
20734;SDS011;10528;52.124;5.196;2023-10-13T04:56:23;5.20;;;4.65;;
20734;SDS011;10528;52.124;5.196;2023-10-13T04:59:09;6.28;;;4.97;;
20734;SDS011;10528;52.124;5.196;2023-10-13T05:02:02;7.25;;;4.68;;
20734;SDS011;10528;52.124;5.196;2023-10-13T05:04:35;11.30;;;5.45;;
20734;SDS011;10528;52.124;5.196;2023-10-13T05:07:20;7.25;;;4.70;;
20734;SDS011;10528;52.124;5.196;2023-10-13T05:10:06;5.68;;;4.93;;
20734;SDS011;10528;52.124;5.196;2023-10-13T05:12:51;5.53;;;4.22;;
20734;SDS011;10528;52.124;5.196;2023-10-13T05:15:43;6.75;;;4.70;;
20734;SDS011;10528;52.124;5.196;2023-10-13T05:18:33;5.85;;;4.20;;
20734;SDS011;10528;52.124;5.196;2023-10-13T05:21:19;5.80;;;4.60;;
20734;SDS011;10528;52.124;5.196;2023-10-13T05:24:05;5.28;;;4.00;;
20734;SDS011;10528;52.124;5.196;2023-10-13T05:26:51;6.68;;;4.57;;
20734;SDS011;10528;52.124;5.196;2023-10-13T05:29:38;7.45;;;4.72;;
20734;SDS011;10528;52.124;5.196;2023-10-13T05:32:25;9.88;;;4.80;;
20734;SDS011;10528;52.124;5.196;2023-10-13T05:35:12;10.65;;;4.90;;
20734;SDS011;10528;52.124;5.196;2023-10-13T05:37:58;10.00;;;5.20;;
20734;SDS011;10528;52.124;5.196;2023-10-13T05:40:55;8.00;;;4.60;;
20734;SDS011;10528;52.124;5.196;2023-10-13T05:43:47;9.38;;;4.60;;
20734;SDS011;10528;52.124;5.196;2023-10-13T05:46:34;9.70;;;4.15;;
20734;SDS011;10528;52.124;5.196;2023-10-13T05:49:08;12.40;;;4.05;;
20734;SDS011;10528;52.124;5.196;2023-10-13T05:51:35;7.70;;;4.10;;
20734;SDS011;10528;52.124;5.196;2023-10-13T05:54:03;9.85;;;3.85;;
20734;SDS011;10528;52.124;5.196;2023-10-13T05:59:29;12.35;;;4.47;;
20734;SDS011;10528;52.124;5.196;2023-10-13T06:02:16;13.35;;;4.40;;
20734;SDS011;10528;52.124;5.196;2023-10-13T06:05:10;12.98;;;3.92;;
20734;SDS011;10528;52.124;5.196;2023-10-13T06:07:58;9.02;;;4.05;;
20734;SDS011;10528;52.124;5.196;2023-10-13T06:10:44;8.77;;;4.47;;
20734;SDS011;10528;52.124;5.196;2023-10-13T06:13:31;13.45;;;4.47;;
20734;SDS011;10528;52.124;5.196;2023-10-13T06:16:17;9.45;;;4.10;;
20734;SDS011;10528;52.124;5.196;2023-10-13T06:19:03;12.00;;;4.85;;
20734;SDS011;10528;52.124;5.196;2023-10-13T06:21:49;11.32;;;4.60;;
20734;SDS011;10528;52.124;5.196;2023-10-13T06:24:34;12.20;;;4.57;;
20734;SDS011;10528;52.124;5.196;2023-10-13T06:27:20;9.02;;;4.22;;
20734;SDS011;10528;52.124;5.196;2023-10-13T06:30:05;7.78;;;4.18;;
20734;SDS011;10528;52.124;5.196;2023-10-13T06:32:33;13.65;;;5.25;;
20734;SDS011;10528;52.124;5.196;2023-10-13T06:35:00;9.50;;;4.53;;
20734;SDS011;10528;52.124;5.196;2023-10-13T06:37:45;10.10;;;4.90;;
20734;SDS011;10528;52.124;5.196;2023-10-13T06:40:12;8.90;;;4.63;;
20734;SDS011;10528;52.124;5.196;2023-10-13T06:42:57;8.52;;;4.38;;
20734;SDS011;10528;52.124;5.196;2023-10-13T06:45:45;10.48;;;4.57;;
20734;SDS011;10528;52.124;5.196;2023-10-13T06:48:26;9.32;;;4.75;;
20734;SDS011;10528;52.124;5.196;2023-10-13T06:50:59;9.85;;;4.95;;
20734;SDS011;10528;52.124;5.196;2023-10-13T06:53:32;9.63;;;4.80;;
20734;SDS011;10528;52.124;5.196;2023-10-13T06:56:10;9.48;;;4.82;;
20734;SDS011;10528;52.124;5.196;2023-10-13T06:58:37;11.13;;;5.50;;
20734;SDS011;10528;52.124;5.196;2023-10-13T07:01:09;7.85;;;5.00;;
20734;SDS011;10528;52.124;5.196;2023-10-13T07:03:44;10.77;;;6.05;;
20734;SDS011;10528;52.124;5.196;2023-10-13T07:06:19;9.65;;;6.40;;
20734;SDS011;10528;52.124;5.196;2023-10-13T07:08:47;8.40;;;6.50;;
20734;SDS011;10528;52.124;5.196;2023-10-13T07:11:25;13.82;;;8.88;;
20734;SDS011;10528;52.124;5.196;2023-10-13T07:14:01;13.77;;;9.40;;
20734;SDS011;10528;52.124;5.196;2023-10-13T07:16:43;11.48;;;9.25;;
20734;SDS011;10528;52.124;5.196;2023-10-13T07:19:29;12.20;;;9.40;;
20734;SDS011;10528;52.124;5.196;2023-10-13T07:21:57;12.13;;;9.93;;
20734;SDS011;10528;52.124;5.196;2023-10-13T07:24:29;13.45;;;9.27;;
20734;SDS011;10528;52.124;5.196;2023-10-13T07:27:02;14.35;;;9.52;;
20734;SDS011;10528;52.124;5.196;2023-10-13T07:29:32;11.20;;;8.73;;
20734;SDS011;10528;52.124;5.196;2023-10-13T07:32:03;11.50;;;7.97;;
20734;SDS011;10528;52.124;5.196;2023-10-13T07:34:30;12.88;;;7.80;;
20734;SDS011;10528;52.124;5.196;2023-10-13T07:37:02;13.07;;;6.97;;
20734;SDS011;10528;52.124;5.196;2023-10-13T07:39:34;11.27;;;6.90;;
20734;SDS011;10528;52.124;5.196;2023-10-13T07:42:02;11.40;;;7.20;;
20734;SDS011;10528;52.124;5.196;2023-10-13T07:44:32;10.95;;;5.60;;
20734;SDS011;10528;52.124;5.196;2023-10-13T07:47:01;13.20;;;6.22;;
20734;SDS011;10528;52.124;5.196;2023-10-13T07:49:32;11.65;;;5.90;;
20734;SDS011;10528;52.124;5.196;2023-10-13T07:52:07;12.40;;;6.18;;
20734;SDS011;10528;52.124;5.196;2023-10-13T07:54:47;13.77;;;5.72;;
20734;SDS011;10528;52.124;5.196;2023-10-13T07:57:21;12.57;;;6.15;;
20734;SDS011;10528;52.124;5.196;2023-10-13T07:59:57;17.58;;;6.00;;
20734;SDS011;10528;52.124;5.196;2023-10-13T08:02:56;12.00;;;5.85;;
20734;SDS011;10528;52.124;5.196;2023-10-13T08:05:42;11.13;;;5.70;;
20734;SDS011;10528;52.124;5.196;2023-10-13T08:08:29;10.60;;;5.95;;
20734;SDS011;10528;52.124;5.196;2023-10-13T08:13:50;11.43;;;5.72;;
20734;SDS011;10528;52.124;5.196;2023-10-13T08:16:38;11.18;;;5.82;;
20734;SDS011;10528;52.124;5.196;2023-10-13T08:19:26;12.82;;;6.35;;
20734;SDS011;10528;52.124;5.196;2023-10-13T08:22:06;14.48;;;5.65;;
20734;SDS011;10528;52.124;5.196;2023-10-13T08:24:46;12.32;;;5.15;;
20734;SDS011;10528;52.124;5.196;2023-10-13T08:27:15;9.77;;;5.00;;
20734;SDS011;10528;52.124;5.196;2023-10-13T08:30:22;13.32;;;6.05;;
20734;SDS011;10528;52.124;5.196;2023-10-13T08:32:56;12.55;;;5.38;;
20734;SDS011;10528;52.124;5.196;2023-10-13T08:35:26;14.15;;;5.55;;
20734;SDS011;10528;52.124;5.196;2023-10-13T08:37:56;12.32;;;5.00;;
20734;SDS011;10528;52.124;5.196;2023-10-13T08:40:41;19.83;;;7.20;;
20734;SDS011;10528;52.124;5.196;2023-10-13T08:43:31;9.95;;;4.60;;
20734;SDS011;10528;52.124;5.196;2023-10-13T08:46:11;10.38;;;4.75;;
20734;SDS011;10528;52.124;5.196;2023-10-13T08:49:05;11.20;;;4.93;;
20734;SDS011;10528;52.124;5.196;2023-10-13T08:51:40;12.60;;;5.30;;
20734;SDS011;10528;52.124;5.196;2023-10-13T08:54:32;10.98;;;5.13;;
20734;SDS011;10528;52.124;5.196;2023-10-13T08:57:11;12.20;;;4.95;;
20734;SDS011;10528;52.124;5.196;2023-10-13T08:59:46;9.93;;;4.90;;
20734;SDS011;10528;52.124;5.196;2023-10-13T09:02:22;11.60;;;4.68;;
20734;SDS011;10528;52.124;5.196;2023-10-13T09:05:10;9.85;;;4.57;;
20734;SDS011;10528;52.124;5.196;2023-10-13T09:07:56;9.02;;;4.25;;
20734;SDS011;10528;52.124;5.196;2023-10-13T09:10:34;10.48;;;4.80;;
20734;SDS011;10528;52.124;5.196;2023-10-13T09:13:11;12.75;;;4.53;;
20734;SDS011;10528;52.124;5.196;2023-10-13T09:15:46;12.45;;;5.13;;
20734;SDS011;10528;52.124;5.196;2023-10-13T09:18:26;15.05;;;5.20;;
20734;SDS011;10528;52.124;5.196;2023-10-13T09:21:12;14.23;;;4.82;;
20734;SDS011;10528;52.124;5.196;2023-10-13T09:24:01;18.30;;;5.05;;
20734;SDS011;10528;52.124;5.196;2023-10-13T09:26:43;12.27;;;4.75;;
20734;SDS011;10528;52.124;5.196;2023-10-13T09:29:17;11.93;;;5.40;;
20734;SDS011;10528;52.124;5.196;2023-10-13T09:31:46;10.75;;;5.10;;
20734;SDS011;10528;52.124;5.196;2023-10-13T09:34:21;10.68;;;4.30;;
20734;SDS011;10528;52.124;5.196;2023-10-13T09:36:57;8.73;;;4.75;;
20734;SDS011;10528;52.124;5.196;2023-10-13T09:39:25;11.73;;;5.10;;
20734;SDS011;10528;52.124;5.196;2023-10-13T09:41:56;11.57;;;5.30;;
20734;SDS011;10528;52.124;5.196;2023-10-13T09:44:23;17.60;;;5.18;;
20734;SDS011;10528;52.124;5.196;2023-10-13T09:46:52;13.10;;;5.38;;
20734;SDS011;10528;52.124;5.196;2023-10-13T09:49:25;12.63;;;5.13;;
20734;SDS011;10528;52.124;5.196;2023-10-13T09:52:14;11.68;;;5.00;;
20734;SDS011;10528;52.124;5.196;2023-10-13T09:54:54;13.07;;;5.28;;
20734;SDS011;10528;52.124;5.196;2023-10-13T09:57:37;11.38;;;5.20;;
20734;SDS011;10528;52.124;5.196;2023-10-13T10:00:11;10.07;;;5.63;;
20734;SDS011;10528;52.124;5.196;2023-10-13T10:03:01;13.00;;;5.18;;
20734;SDS011;10528;52.124;5.196;2023-10-13T10:05:42;18.00;;;5.47;;
20734;SDS011;10528;52.124;5.196;2023-10-13T10:08:25;8.07;;;4.70;;
20734;SDS011;10528;52.124;5.196;2023-10-13T10:11:19;11.38;;;5.22;;
20734;SDS011;10528;52.124;5.196;2023-10-13T10:17:06;11.57;;;5.13;;
20734;SDS011;10528;52.124;5.196;2023-10-13T10:22:26;14.75;;;5.15;;
20734;SDS011;10528;52.124;5.196;2023-10-13T10:25:10;11.15;;;5.80;;
20734;SDS011;10528;52.124;5.196;2023-10-13T10:27:55;13.98;;;5.95;;
20734;SDS011;10528;52.124;5.196;2023-10-13T10:30:27;18.30;;;5.85;;
20734;SDS011;10528;52.124;5.196;2023-10-13T10:32:55;14.52;;;5.75;;
20734;SDS011;10528;52.124;5.196;2023-10-13T10:35:29;13.60;;;5.65;;
20734;SDS011;10528;52.124;5.196;2023-10-13T10:38:08;11.80;;;5.88;;
20734;SDS011;10528;52.124;5.196;2023-10-13T10:40:59;12.32;;;4.88;;
20734;SDS011;10528;52.124;5.196;2023-10-13T10:46:15;18.95;;;5.70;;
20734;SDS011;10528;52.124;5.196;2023-10-13T10:48:55;11.02;;;5.47;;
20734;SDS011;10528;52.124;5.196;2023-10-13T10:51:28;15.13;;;5.75;;
20734;SDS011;10528;52.124;5.196;2023-10-13T10:53:58;15.48;;;5.45;;
20734;SDS011;10528;52.124;5.196;2023-10-13T10:56:37;15.55;;;6.10;;
20734;SDS011;10528;52.124;5.196;2023-10-13T10:59:05;11.60;;;5.28;;
20734;SDS011;10528;52.124;5.196;2023-10-13T11:01:46;11.85;;;5.10;;
20734;SDS011;10528;52.124;5.196;2023-10-13T11:04:14;13.25;;;6.53;;
20734;SDS011;10528;52.124;5.196;2023-10-13T11:06:46;14.68;;;5.65;;
20734;SDS011;10528;52.124;5.196;2023-10-13T11:09:15;12.57;;;5.97;;
20734;SDS011;10528;52.124;5.196;2023-10-13T11:14:40;13.32;;;5.70;;
20734;SDS011;10528;52.124;5.196;2023-10-13T11:17:18;12.75;;;5.93;;
20734;SDS011;10528;52.124;5.196;2023-10-13T11:19:52;15.27;;;6.03;;
20734;SDS011;10528;52.124;5.196;2023-10-13T11:22:20;11.27;;;5.80;;
20734;SDS011;10528;52.124;5.196;2023-10-13T11:25:03;11.05;;;6.38;;
20734;SDS011;10528;52.124;5.196;2023-10-13T11:27:38;12.95;;;5.50;;
20734;SDS011;10528;52.124;5.196;2023-10-13T11:30:17;11.00;;;5.28;;
20734;SDS011;10528;52.124;5.196;2023-10-13T11:33:01;12.90;;;5.68;;
20734;SDS011;10528;52.124;5.196;2023-10-13T11:35:36;13.65;;;6.25;;
20734;SDS011;10528;52.124;5.196;2023-10-13T11:38:25;14.45;;;6.25;;
20734;SDS011;10528;52.124;5.196;2023-10-13T11:41:06;14.20;;;6.70;;
20734;SDS011;10528;52.124;5.196;2023-10-13T11:46:17;11.02;;;6.35;;
20734;SDS011;10528;52.124;5.196;2023-10-13T11:49:05;12.82;;;6.50;;
20734;SDS011;10528;52.124;5.196;2023-10-13T11:51:40;11.00;;;5.65;;
20734;SDS011;10528;52.124;5.196;2023-10-13T11:54:22;15.95;;;6.47;;
20734;SDS011;10528;52.124;5.196;2023-10-13T11:56:50;14.98;;;7.07;;
20734;SDS011;10528;52.124;5.196;2023-10-13T11:59:17;12.50;;;6.50;;
20734;SDS011;10528;52.124;5.196;2023-10-13T12:01:45;13.75;;;6.68;;
20734;SDS011;10528;52.124;5.196;2023-10-13T12:04:32;14.50;;;6.72;;
20734;SDS011;10528;52.124;5.196;2023-10-13T12:07:18;14.98;;;6.60;;
20734;SDS011;10528;52.124;5.196;2023-10-13T12:09:50;15.70;;;7.05;;
20734;SDS011;10528;52.124;5.196;2023-10-13T12:12:21;17.73;;;6.38;;
20734;SDS011;10528;52.124;5.196;2023-10-13T12:14:55;11.10;;;5.85;;
20734;SDS011;10528;52.124;5.196;2023-10-13T12:17:26;15.88;;;6.03;;
20734;SDS011;10528;52.124;5.196;2023-10-13T12:20:02;14.63;;;6.05;;
20734;SDS011;10528;52.124;5.196;2023-10-13T12:22:31;15.48;;;6.43;;
20734;SDS011;10528;52.124;5.196;2023-10-13T12:25:02;15.00;;;6.60;;
20734;SDS011;10528;52.124;5.196;2023-10-13T12:27:31;18.10;;;6.88;;
20734;SDS011;10528;52.124;5.196;2023-10-13T12:30:11;13.73;;;6.13;;
20734;SDS011;10528;52.124;5.196;2023-10-13T12:32:40;18.77;;;7.88;;
20734;SDS011;10528;52.124;5.196;2023-10-13T12:35:15;10.70;;;6.43;;
20734;SDS011;10528;52.124;5.196;2023-10-13T12:37:53;16.90;;;6.63;;
20734;SDS011;10528;52.124;5.196;2023-10-13T12:40:31;16.80;;;7.70;;
20734;SDS011;10528;52.124;5.196;2023-10-13T12:43:16;15.27;;;6.75;;
20734;SDS011;10528;52.124;5.196;2023-10-13T12:46:02;14.60;;;5.80;;
20734;SDS011;10528;52.124;5.196;2023-10-13T12:48:47;14.40;;;6.85;;
20734;SDS011;10528;52.124;5.196;2023-10-13T12:51:33;14.07;;;5.93;;
20734;SDS011;10528;52.124;5.196;2023-10-13T12:54:00;12.77;;;5.90;;
20734;SDS011;10528;52.124;5.196;2023-10-13T12:56:42;12.65;;;5.75;;
20734;SDS011;10528;52.124;5.196;2023-10-13T12:59:09;17.25;;;5.53;;
20734;SDS011;10528;52.124;5.196;2023-10-13T13:01:40;10.35;;;5.40;;
20734;SDS011;10528;52.124;5.196;2023-10-13T13:04:12;12.32;;;6.43;;
20734;SDS011;10528;52.124;5.196;2023-10-13T13:06:47;13.82;;;6.85;;
20734;SDS011;10528;52.124;5.196;2023-10-13T13:09:16;16.83;;;7.13;;
20734;SDS011;10528;52.124;5.196;2023-10-13T13:11:52;13.63;;;6.10;;
20734;SDS011;10528;52.124;5.196;2023-10-13T13:14:24;13.80;;;6.10;;
20734;SDS011;10528;52.124;5.196;2023-10-13T13:17:00;18.75;;;6.25;;
20734;SDS011;10528;52.124;5.196;2023-10-13T13:19:34;16.70;;;6.85;;
20734;SDS011;10528;52.124;5.196;2023-10-13T13:22:06;16.25;;;6.45;;
20734;SDS011;10528;52.124;5.196;2023-10-13T13:24:44;15.48;;;6.20;;
20734;SDS011;10528;52.124;5.196;2023-10-13T13:27:12;13.63;;;6.68;;
20734;SDS011;10528;52.124;5.196;2023-10-13T13:29:41;14.20;;;6.60;;
20734;SDS011;10528;52.124;5.196;2023-10-13T13:32:08;14.77;;;6.30;;
20734;SDS011;10528;52.124;5.196;2023-10-13T13:34:51;17.45;;;6.40;;
20734;SDS011;10528;52.124;5.196;2023-10-13T13:37:31;16.83;;;6.32;;
20734;SDS011;10528;52.124;5.196;2023-10-13T13:39:58;14.48;;;6.63;;
20734;SDS011;10528;52.124;5.196;2023-10-13T13:42:41;17.77;;;6.10;;
20734;SDS011;10528;52.124;5.196;2023-10-13T13:45:13;14.07;;;6.10;;
20734;SDS011;10528;52.124;5.196;2023-10-13T13:47:48;15.55;;;6.40;;
20734;SDS011;10528;52.124;5.196;2023-10-13T13:50:22;15.75;;;6.70;;
20734;SDS011;10528;52.124;5.196;2023-10-13T13:52:56;18.58;;;7.32;;
20734;SDS011;10528;52.124;5.196;2023-10-13T13:55:24;17.20;;;6.70;;
20734;SDS011;10528;52.124;5.196;2023-10-13T13:57:57;15.23;;;7.28;;
20734;SDS011;10528;52.124;5.196;2023-10-13T14:00:24;14.73;;;5.75;;
20734;SDS011;10528;52.124;5.196;2023-10-13T14:03:04;18.45;;;7.65;;
20734;SDS011;10528;52.124;5.196;2023-10-13T14:05:42;14.27;;;6.45;;
20734;SDS011;10528;52.124;5.196;2023-10-13T14:08:09;18.75;;;6.97;;
20734;SDS011;10528;52.124;5.196;2023-10-13T14:10:38;12.55;;;6.43;;
20734;SDS011;10528;52.124;5.196;2023-10-13T14:13:24;14.02;;;7.15;;
20734;SDS011;10528;52.124;5.196;2023-10-13T14:16:11;17.23;;;7.30;;
20734;SDS011;10528;52.124;5.196;2023-10-13T14:18:47;19.10;;;6.97;;
20734;SDS011;10528;52.124;5.196;2023-10-13T14:21:16;21.38;;;7.38;;
20734;SDS011;10528;52.124;5.196;2023-10-13T14:23:51;16.30;;;7.13;;
20734;SDS011;10528;52.124;5.196;2023-10-13T14:26:21;14.48;;;7.22;;
20734;SDS011;10528;52.124;5.196;2023-10-13T14:28:51;16.08;;;7.18;;
20734;SDS011;10528;52.124;5.196;2023-10-13T14:31:29;18.77;;;7.35;;
20734;SDS011;10528;52.124;5.196;2023-10-13T14:33:57;12.25;;;6.28;;
20734;SDS011;10528;52.124;5.196;2023-10-13T14:36:25;16.35;;;7.30;;
20734;SDS011;10528;52.124;5.196;2023-10-13T14:38:55;12.88;;;6.35;;
20734;SDS011;10528;52.124;5.196;2023-10-13T14:41:22;15.73;;;6.55;;
20734;SDS011;10528;52.124;5.196;2023-10-13T14:43:49;11.13;;;5.57;;
20734;SDS011;10528;52.124;5.196;2023-10-13T14:46:17;15.98;;;6.30;;
20734;SDS011;10528;52.124;5.196;2023-10-13T14:48:52;14.18;;;5.95;;
20734;SDS011;10528;52.124;5.196;2023-10-13T14:51:19;10.50;;;5.70;;
20734;SDS011;10528;52.124;5.196;2023-10-13T14:53:47;11.93;;;5.00;;
20734;SDS011;10528;52.124;5.196;2023-10-13T14:56:19;14.10;;;6.00;;
20734;SDS011;10528;52.124;5.196;2023-10-13T14:58:46;14.90;;;5.90;;
20734;SDS011;10528;52.124;5.196;2023-10-13T15:01:16;11.90;;;5.63;;
20734;SDS011;10528;52.124;5.196;2023-10-13T15:03:49;16.75;;;6.10;;
20734;SDS011;10528;52.124;5.196;2023-10-13T15:06:22;11.75;;;5.43;;
20734;SDS011;10528;52.124;5.196;2023-10-13T15:08:57;11.95;;;5.93;;
20734;SDS011;10528;52.124;5.196;2023-10-13T15:11:26;13.27;;;5.28;;
20734;SDS011;10528;52.124;5.196;2023-10-13T15:14:12;12.00;;;5.47;;
20734;SDS011;10528;52.124;5.196;2023-10-13T15:16:39;13.75;;;5.40;;
20734;SDS011;10528;52.124;5.196;2023-10-13T15:19:10;14.48;;;5.65;;
20734;SDS011;10528;52.124;5.196;2023-10-13T15:21:36;12.23;;;5.32;;
20734;SDS011;10528;52.124;5.196;2023-10-13T15:24:06;13.75;;;6.10;;
20734;SDS011;10528;52.124;5.196;2023-10-13T15:26:44;11.13;;;5.22;;
20734;SDS011;10528;52.124;5.196;2023-10-13T15:29:14;14.38;;;5.85;;
20734;SDS011;10528;52.124;5.196;2023-10-13T15:31:43;14.52;;;6.03;;
20734;SDS011;10528;52.124;5.196;2023-10-13T15:34:27;17.08;;;6.85;;
20734;SDS011;10528;52.124;5.196;2023-10-13T15:36:55;11.30;;;7.38;;
20734;SDS011;10528;52.124;5.196;2023-10-13T15:39:23;14.43;;;7.05;;
20734;SDS011;10528;52.124;5.196;2023-10-13T15:41:55;13.98;;;7.70;;
20734;SDS011;10528;52.124;5.196;2023-10-13T15:44:25;16.98;;;6.70;;
20734;SDS011;10528;52.124;5.196;2023-10-13T15:46:57;13.80;;;7.50;;